createdAt,value
2023-01-08T02:28:27.459Z,72.02
2023-01-08T02:30:55.670Z,71.92
2023-01-08T02:33:26.908Z,71.85
2023-01-08T02:36:15.580Z,72.67
2023-01-08T02:39:23.718Z,73.19
2023-01-08T02:42:06.910Z,73.77
2023-01-08T02:44:47.947Z,72.82
2023-01-08T02:47:41.308Z,72.78
2023-01-08T02:50:18.976Z,73.24
2023-01-08T02:53:00.385Z,73.51
2023-01-08T02:55:29.227Z,73.69
2023-01-08T02:57:57.667Z,73.76
2023-01-08T03:00:24.865Z,73.75
2023-01-08T03:03:05.724Z,73.46
2023-01-08T03:05:33.654Z,73.32
2023-01-08T03:08:00.903Z,73.09
2023-01-08T03:10:30.363Z,72.79
2023-01-08T03:13:09.150Z,72.60
2023-01-08T03:15:46.145Z,72.96
2023-01-08T03:18:20.974Z,73.04
2023-01-08T03:20:50.759Z,73.61
2023-01-08T03:23:20.742Z,73.90
2023-01-08T03:25:48.420Z,73.55
2023-01-08T03:28:33.310Z,73.37
2023-01-08T03:31:02.546Z,73.40
2023-01-08T03:33:32.341Z,73.16
2023-01-08T03:36:03.584Z,73.25
2023-01-08T03:38:44.868Z,73.49
2023-01-08T03:41:18.347Z,73.39
2023-01-08T03:43:45.193Z,74.00
2023-01-08T03:46:19.977Z,73.72
2023-01-08T03:48:49.684Z,74.04
2023-01-08T03:51:16.215Z,73.83
2023-01-08T03:53:42.740Z,73.35
2023-01-08T03:56:09.273Z,73.35
2023-01-08T03:58:35.723Z,73.51
2023-01-08T04:01:02.257Z,73.31
2023-01-08T04:03:28.747Z,73.40
2023-01-08T04:05:55.209Z,73.62
2023-01-08T04:08:21.685Z,73.67
2023-01-08T04:10:48.163Z,73.21
2023-01-08T04:13:14.615Z,73.39
2023-01-08T04:15:41.211Z,72.90
2023-01-08T04:18:07.745Z,72.80
2023-01-08T04:20:34.204Z,73.15
2023-01-08T04:23:00.676Z,73.48
2023-01-08T04:25:27.144Z,73.77
2023-01-08T04:27:53.592Z,73.75
2023-01-08T04:30:20.079Z,73.86
2023-01-08T04:32:46.550Z,73.79
2023-01-08T04:35:13.059Z,73.95
2023-01-08T04:37:39.582Z,74.11
2023-01-08T04:40:06.865Z,74.02
2023-01-08T04:42:33.363Z,74.17
2023-01-08T04:44:59.852Z,73.92
2023-01-08T04:47:26.300Z,73.78
2023-01-08T04:49:52.737Z,74.25
2023-01-08T04:52:19.207Z,73.94
2023-01-08T04:54:45.708Z,74.39
2023-01-08T04:57:12.174Z,74.12
2023-01-08T04:59:38.609Z,74.86
2023-01-08T05:02:05.201Z,74.79
2023-01-08T05:04:31.706Z,74.73
2023-01-08T05:06:58.187Z,74.27
2023-01-08T05:09:24.705Z,74.05
2023-01-08T05:11:51.176Z,73.98
2023-01-08T05:14:17.699Z,73.85
2023-01-08T05:16:44.214Z,73.71
2023-01-08T05:19:10.932Z,73.60
2023-01-08T05:21:37.476Z,73.77
2023-01-08T05:24:04.224Z,73.54
2023-01-08T05:26:30.778Z,73.84
2023-01-08T05:28:58.166Z,73.77
2023-01-08T05:31:24.965Z,73.74
2023-01-08T05:33:51.619Z,73.74
2023-01-08T05:36:18.261Z,73.24
2023-01-08T05:38:44.771Z,73.09
2023-01-08T05:41:11.483Z,73.30
2023-01-08T05:43:37.958Z,73.54
2023-01-08T05:46:06.144Z,73.48
2023-01-08T05:48:35.607Z,73.21
2023-01-08T05:51:03.783Z,72.90
2023-01-08T05:53:34.238Z,73.50
2023-01-08T05:56:09.394Z,73.69
2023-01-08T05:58:36.325Z,73.71
2023-01-08T06:01:10.886Z,74.02
2023-01-08T06:03:38.818Z,73.96
2023-01-08T06:06:08.074Z,73.78
2023-01-08T06:08:35.072Z,73.32
2023-01-08T06:11:05.620Z,73.10
2023-01-08T06:13:33.735Z,72.97
2023-01-08T06:16:02.005Z,73.36
2023-01-08T06:18:30.123Z,73.30
2023-01-08T06:20:56.759Z,73.62
2023-01-08T06:23:23.251Z,73.59
2023-01-08T06:25:54.909Z,73.14
2023-01-08T06:28:22.210Z,73.41
2023-01-08T06:30:49.041Z,73.43
2023-01-08T06:33:15.981Z,73.47
2023-01-08T06:35:42.532Z,73.47
2023-01-08T06:38:09.054Z,73.40
2023-01-08T06:40:35.601Z,73.64
2023-01-08T06:43:03.675Z,73.45
2023-01-08T06:45:30.343Z,73.58
2023-01-08T06:48:02.144Z,73.07
2023-01-08T06:50:29.667Z,73.02
2023-01-08T06:52:57.181Z,72.90
2023-01-08T06:55:25.283Z,72.91
2023-01-08T06:57:56.827Z,73.21
2023-01-08T07:00:26.072Z,73.33
2023-01-08T07:02:54.383Z,73.37
2023-01-08T07:05:21.825Z,73.23
2023-01-08T07:07:48.789Z,73.43
2023-01-08T07:10:15.416Z,73.42
2023-01-08T07:12:41.892Z,73.34
2023-01-08T07:15:09.163Z,73.25
2023-01-08T07:17:35.763Z,73.20
2023-01-08T07:20:02.229Z,73.32
2023-01-08T07:22:29.110Z,73.08
2023-01-08T07:24:55.726Z,73.10
2023-01-08T07:27:22.276Z,72.89
2023-01-08T07:29:48.754Z,73.13
2023-01-08T07:32:15.212Z,73.17
2023-01-08T07:34:41.637Z,73.07
2023-01-08T07:37:08.122Z,73.09
2023-01-08T07:39:34.646Z,73.71
2023-01-08T07:42:01.234Z,73.39
2023-01-08T07:44:27.731Z,73.42
2023-01-08T07:46:55.057Z,73.23
2023-01-08T07:49:21.537Z,73.15
2023-01-08T07:51:50.827Z,73.31
2023-01-08T07:54:17.518Z,73.18
2023-01-08T07:56:44.113Z,72.86
2023-01-08T07:59:10.649Z,73.02
2023-01-08T08:01:37.264Z,73.27
2023-01-08T08:04:03.919Z,73.10
2023-01-08T08:06:30.380Z,73.16
2023-01-08T08:08:59.820Z,72.76
2023-01-08T08:11:26.392Z,72.91
2023-01-08T08:13:54.664Z,72.96
2023-01-08T08:16:22.576Z,73.44
2023-01-08T08:18:49.118Z,73.58
2023-01-08T08:21:15.579Z,73.45
2023-01-08T08:23:42.043Z,72.96
2023-01-08T08:26:08.528Z,73.17
2023-01-08T08:28:35.026Z,72.98
2023-01-08T08:31:01.546Z,73.24
2023-01-08T08:33:28.043Z,72.47
2023-01-08T08:35:54.510Z,72.64
2023-01-08T08:38:23.236Z,72.51
2023-01-08T08:40:50.745Z,72.76
2023-01-08T08:43:17.320Z,72.69
2023-01-08T08:45:44.122Z,72.82
2023-01-08T08:48:11.292Z,72.69
2023-01-08T08:50:39.846Z,72.52
2023-01-08T08:53:06.712Z,72.67
2023-01-08T08:55:34.016Z,72.70
2023-01-08T08:58:10.896Z,72.88
2023-01-08T09:00:39.445Z,73.34
2023-01-08T09:03:06.116Z,73.24
2023-01-08T09:05:36.868Z,73.46
2023-01-08T09:08:03.742Z,73.56
2023-01-08T09:10:30.298Z,73.67
2023-01-08T09:12:56.804Z,73.90
2023-01-08T09:15:23.443Z,73.49
2023-01-08T09:17:55.389Z,73.57
2023-01-08T09:20:23.325Z,73.77
2023-01-08T09:22:50.184Z,73.84
2023-01-08T09:25:17.248Z,73.87
2023-01-08T09:27:43.923Z,74.23
2023-01-08T09:30:11.614Z,74.16
2023-01-08T09:32:38.354Z,74.16
2023-01-08T09:35:06.292Z,74.19
2023-01-08T09:37:32.779Z,74.09
2023-01-08T09:40:02.433Z,74.26
2023-01-08T09:42:31.601Z,74.00
2023-01-08T09:45:03.626Z,73.48
2023-01-08T09:47:41.067Z,73.33
2023-01-08T09:50:13.984Z,73.56
2023-01-08T09:52:43.560Z,73.82
2023-01-08T09:55:15.351Z,73.74
2023-01-08T09:57:44.413Z,74.10
2023-01-08T10:00:21.105Z,73.83
2023-01-08T10:02:48.292Z,74.62
2023-01-08T10:05:17.671Z,75.25
2023-01-08T10:07:45.991Z,74.89
2023-01-08T10:10:32.461Z,74.36
2023-01-08T10:12:59.770Z,74.64
2023-01-08T10:15:26.497Z,74.92
2023-01-08T10:18:14.195Z,75.04
2023-01-08T10:20:40.757Z,75.07
2023-01-08T10:23:17.464Z,74.75
2023-01-08T10:25:59.094Z,74.69
2023-01-08T10:28:33.223Z,73.88
2023-01-08T10:31:08.157Z,73.45
2023-01-08T10:33:47.175Z,73.33
2023-01-08T10:36:24.360Z,73.28
2023-01-08T10:39:03.243Z,72.95
2023-01-08T10:41:31.351Z,73.26
2023-01-08T10:44:06.259Z,72.84
2023-01-08T10:46:42.396Z,72.73
2023-01-08T10:49:29.601Z,72.10
2023-01-08T10:51:56.489Z,72.77
2023-01-08T10:54:38.892Z,72.71
2023-01-08T10:57:28.358Z,72.17
2023-01-08T10:59:56.643Z,72.35
2023-01-08T11:02:38.332Z,72.32
2023-01-08T11:05:10.838Z,72.28
2023-01-08T11:07:40.124Z,72.26
2023-01-08T11:10:20.900Z,71.94
2023-01-08T11:12:47.489Z,72.02
2023-01-08T11:15:19.623Z,71.83
2023-01-08T11:17:46.546Z,72.14
2023-01-08T11:20:20.899Z,71.30
2023-01-08T11:22:47.424Z,72.08
2023-01-08T11:25:25.289Z,71.93
2023-01-08T11:27:53.756Z,71.60
2023-01-08T11:30:26.000Z,71.25
2023-01-08T11:33:18.502Z,71.46
2023-01-08T11:36:02.019Z,71.25
2023-01-08T11:38:28.522Z,71.88
2023-01-08T11:40:59.151Z,70.99
2023-01-08T11:44:02.743Z,71.00
2023-01-08T11:46:59.787Z,70.70
2023-01-08T11:49:45.875Z,70.81
2023-01-08T11:53:23.919Z,71.20
2023-01-08T11:55:56.367Z,71.14
2023-01-08T11:58:59.105Z,71.06
2023-01-08T12:01:48.121Z,71.37
2023-01-08T12:05:04.574Z,71.02
2023-01-08T12:08:06.687Z,71.10
2023-01-08T12:10:45.414Z,71.22
2023-01-08T12:13:41.805Z,70.73
2023-01-08T12:16:32.789Z,70.50
2023-01-08T12:19:31.072Z,70.10
2023-01-08T12:22:38.210Z,70.48
2023-01-08T12:25:16.827Z,70.94
2023-01-08T12:28:13.926Z,71.08
2023-01-08T12:31:36.961Z,70.49
2023-01-08T12:34:12.628Z,70.93
2023-01-08T12:36:54.109Z,70.58
2023-01-08T12:39:45.890Z,69.71
2023-01-08T12:42:19.267Z,70.14
2023-01-08T12:44:47.652Z,70.29
2023-01-08T12:47:22.075Z,70.80
2023-01-08T12:50:24.140Z,69.77
2023-01-08T12:52:50.536Z,70.59
2023-01-08T12:55:55.523Z,69.42
2023-01-08T12:58:34.006Z,69.46
2023-01-08T13:01:26.141Z,70.03
2023-01-08T13:03:55.069Z,69.29
2023-01-08T13:06:22.744Z,69.36
2023-01-08T13:08:53.828Z,68.93
2023-01-08T13:11:38.204Z,68.66
2023-01-08T13:14:11.976Z,69.11
2023-01-08T13:16:41.890Z,68.91
2023-01-08T13:19:26.161Z,68.72
2023-01-08T13:22:01.080Z,69.31
2023-01-08T13:24:40.913Z,68.95
2023-01-08T13:27:11.443Z,69.38
2023-01-08T13:29:43.284Z,69.29
2023-01-08T13:32:45.620Z,68.72
2023-01-08T13:35:15.173Z,69.32
2023-01-08T13:37:49.685Z,68.99
2023-01-08T13:40:45.774Z,69.10
2023-01-08T13:43:21.429Z,69.37
2023-01-08T13:46:00.179Z,69.44
2023-01-08T13:48:32.413Z,69.70
2023-01-08T13:50:59.464Z,69.71
2023-01-08T13:53:26.399Z,69.68
2023-01-08T13:56:01.242Z,69.50
2023-01-08T13:58:33.976Z,69.58
2023-01-08T14:01:03.086Z,69.09
2023-01-08T14:03:44.109Z,69.23
2023-01-08T14:06:13.273Z,69.61
2023-01-08T14:09:04.576Z,69.20
2023-01-08T14:11:40.600Z,69.20
2023-01-08T14:14:13.345Z,69.32
2023-01-08T14:16:41.412Z,69.32
2023-01-08T14:19:08.480Z,69.73
2023-01-08T14:21:35.213Z,69.44
2023-01-08T14:24:01.825Z,69.60
2023-01-08T14:26:37.210Z,69.42
2023-01-08T14:29:14.940Z,69.45
2023-01-08T14:31:52.124Z,69.64
2023-01-08T14:34:21.960Z,69.51
2023-01-08T14:36:52.798Z,69.63
2023-01-08T14:39:39.616Z,69.37
2023-01-08T14:42:37.399Z,68.94
2023-01-08T14:45:28.092Z,69.51
2023-01-08T14:48:01.491Z,69.51
2023-01-08T14:50:40.515Z,69.19
2023-01-08T14:53:24.951Z,69.69
2023-01-08T14:55:55.237Z,70.05
2023-01-08T14:58:30.885Z,69.80
2023-01-08T15:01:02.234Z,70.18
2023-01-08T15:03:32.239Z,69.51
2023-01-08T15:05:59.287Z,70.04
2023-01-08T15:08:34.245Z,70.08
2023-01-08T15:11:15.336Z,69.96
2023-01-08T15:13:42.093Z,69.87
2023-01-08T15:16:40.212Z,70.03
2023-01-08T15:19:18.415Z,70.17
2023-01-08T15:21:54.882Z,70.05
2023-01-08T15:24:25.545Z,70.46
2023-01-08T15:26:53.436Z,70.57
2023-01-08T15:29:32.949Z,70.28
2023-01-08T15:32:23.495Z,70.24
2023-01-08T15:34:50.011Z,70.31
2023-01-08T15:37:16.592Z,69.67
2023-01-08T15:39:43.290Z,69.85
2023-01-08T15:42:47.215Z,69.46
2023-01-08T15:45:32.412Z,69.60
2023-01-08T15:47:59.655Z,69.80
2023-01-08T15:50:28.437Z,69.83
2023-01-08T15:53:00.935Z,70.13
2023-01-08T15:55:27.477Z,70.35
2023-01-08T15:57:55.919Z,70.56
2023-01-08T16:00:22.884Z,70.57
2023-01-08T16:02:52.847Z,70.50
2023-01-08T16:05:23.160Z,70.91
2023-01-08T16:07:49.695Z,71.10
2023-01-08T16:10:18.245Z,70.83
2023-01-08T16:12:45.156Z,70.78
2023-01-08T16:15:14.400Z,70.56
2023-01-08T16:17:41.678Z,70.53
2023-01-08T16:20:11.430Z,70.50
2023-01-08T16:22:38.280Z,70.40
2023-01-08T16:25:05.723Z,70.44
2023-01-08T16:27:33.294Z,70.07
2023-01-08T16:30:00.050Z,70.21
2023-01-08T16:32:26.539Z,70.20
2023-01-08T16:34:54.815Z,70.55
2023-01-08T16:37:22.428Z,70.54
2023-01-08T16:39:49.251Z,70.73
2023-01-08T16:42:15.759Z,71.02
2023-01-08T16:44:42.436Z,70.87
2023-01-08T16:47:08.976Z,70.96
2023-01-08T16:49:35.925Z,70.94
2023-01-08T16:52:02.592Z,71.02
2023-01-08T16:54:29.270Z,70.85
2023-01-08T16:56:55.751Z,70.44
2023-01-08T16:59:23.899Z,70.16
2023-01-08T17:01:52.236Z,70.39
2023-01-08T17:04:19.349Z,70.91
2023-01-08T17:06:46.798Z,70.79
2023-01-08T17:09:14.523Z,70.91
2023-01-08T17:11:41.135Z,71.40
2023-01-08T17:14:08.781Z,71.05
2023-01-08T17:16:35.358Z,71.43
2023-01-08T17:19:01.900Z,70.93
2023-01-08T17:21:28.401Z,71.50
2023-01-08T17:23:54.910Z,71.45
2023-01-08T17:26:21.620Z,71.12
2023-01-08T17:28:48.253Z,71.44
2023-01-08T17:31:18.423Z,71.26
2023-01-08T17:33:50.084Z,71.51
2023-01-08T17:36:23.758Z,71.69
2023-01-08T17:38:52.972Z,71.54
2023-01-08T17:41:40.518Z,71.21
2023-01-08T17:44:09.453Z,71.44
2023-01-08T17:46:39.616Z,72.03
2023-01-08T17:49:06.173Z,71.93
2023-01-08T17:51:33.403Z,71.77
2023-01-08T17:54:01.049Z,72.21
2023-01-08T17:56:27.981Z,72.10
2023-01-08T17:58:54.610Z,72.01
2023-01-08T18:01:21.417Z,71.73
2023-01-08T18:03:48.154Z,72.61
2023-01-08T18:06:14.838Z,72.02
2023-01-08T18:08:41.568Z,72.33
2023-01-08T18:11:10.222Z,71.59
2023-01-08T18:13:37.915Z,72.09
2023-01-08T18:16:10.794Z,71.56
2023-01-08T18:18:39.119Z,71.88
2023-01-08T18:21:06.953Z,71.33
2023-01-08T18:23:33.861Z,70.62
2023-01-08T18:26:12.513Z,70.62
2023-01-08T18:28:39.557Z,70.89
2023-01-08T18:31:09.048Z,70.67
2023-01-08T18:33:36.801Z,70.65
2023-01-08T18:36:09.253Z,70.64
2023-01-08T18:38:42.464Z,70.58
2023-01-08T18:41:12.474Z,70.57
2023-01-08T18:43:38.996Z,70.81
2023-01-08T18:46:07.977Z,70.69
2023-01-08T18:48:35.610Z,70.46
2023-01-08T18:51:05.551Z,70.71
2023-01-08T18:53:33.514Z,70.92
2023-01-08T18:56:01.708Z,70.67
2023-01-08T18:58:29.457Z,70.75
2023-01-08T19:01:01.749Z,71.30
2023-01-08T19:03:28.262Z,70.94
2023-01-08T19:05:54.725Z,71.30
2023-01-08T19:08:21.233Z,71.16
2023-01-08T19:10:47.788Z,70.75
2023-01-08T19:13:14.309Z,70.26
2023-01-08T19:15:40.749Z,70.69
2023-01-08T19:18:08.951Z,70.50
2023-01-08T19:20:35.900Z,71.22
2023-01-08T19:23:02.408Z,70.86
2023-01-08T19:25:28.966Z,71.01
2023-01-08T19:27:55.419Z,70.73
2023-01-08T19:30:21.926Z,70.69
2023-01-08T19:32:48.869Z,70.25
2023-01-08T19:35:15.416Z,70.77
2023-01-08T19:37:42.958Z,70.66
2023-01-08T19:40:10.539Z,70.89
2023-01-08T19:42:55.978Z,70.93
2023-01-08T19:45:22.502Z,70.65
2023-01-08T19:47:49.211Z,70.92
2023-01-08T19:50:16.033Z,70.90
2023-01-08T19:52:42.610Z,70.61
2023-01-08T19:55:09.582Z,70.41
2023-01-08T19:57:36.211Z,70.54
2023-01-08T20:00:04.596Z,70.01
2023-01-08T20:02:32.232Z,70.20
2023-01-08T20:04:58.697Z,70.16
2023-01-08T20:07:25.256Z,70.48
2023-01-08T20:09:51.743Z,70.34
2023-01-08T20:12:18.264Z,70.70
2023-01-08T20:14:45.058Z,70.61
2023-01-08T20:17:11.848Z,70.86
2023-01-08T20:19:38.344Z,71.25
2023-01-08T20:22:04.938Z,70.79
2023-01-08T20:24:31.560Z,70.55
2023-01-08T20:26:58.054Z,70.44
2023-01-08T20:29:26.157Z,70.48
2023-01-08T20:31:59.320Z,71.06
2023-01-08T20:34:27.063Z,70.52
2023-01-08T20:36:53.634Z,70.39
2023-01-08T20:39:20.214Z,70.34
2023-01-08T20:41:55.723Z,71.01
2023-01-08T20:44:30.420Z,70.71
2023-01-08T20:46:57.000Z,70.61
2023-01-08T20:49:25.176Z,70.65
2023-01-08T20:51:58.622Z,70.96
2023-01-08T20:54:26.632Z,70.81
2023-01-08T20:56:55.955Z,70.66
2023-01-08T20:59:24.037Z,70.62
2023-01-08T21:01:52.369Z,71.03
2023-01-08T21:04:19.210Z,70.67
2023-01-08T21:06:45.838Z,70.29
2023-01-08T21:09:14.022Z,70.34
2023-01-08T21:11:41.132Z,69.98
2023-01-08T21:14:08.868Z,70.20
2023-01-08T21:16:39.403Z,69.79
2023-01-08T21:19:06.857Z,69.81
2023-01-08T21:21:38.974Z,69.82
2023-01-08T21:24:08.874Z,70.19
2023-01-08T21:26:36.818Z,70.05
2023-01-08T21:29:05.877Z,70.21
2023-01-08T21:31:33.065Z,69.94
2023-01-08T21:34:01.589Z,70.77
2023-01-08T21:36:31.373Z,70.70
2023-01-08T21:39:00.773Z,70.77
2023-01-08T21:41:47.805Z,70.74
2023-01-08T21:44:37.619Z,70.49
2023-01-08T21:47:07.529Z,70.36
2023-01-08T21:49:35.960Z,70.42
2023-01-08T21:52:21.235Z,70.19
2023-01-08T21:54:47.758Z,70.15
2023-01-08T21:57:14.346Z,70.47
2023-01-08T21:59:40.876Z,70.12
2023-01-08T22:02:07.574Z,70.05
2023-01-08T22:04:34.458Z,70.25
2023-01-08T22:07:00.979Z,71.02
2023-01-08T22:09:27.463Z,70.66
2023-01-08T22:11:56.105Z,70.30
2023-01-08T22:14:23.061Z,70.61
2023-01-08T22:16:49.557Z,70.12
2023-01-08T22:19:16.077Z,70.42
2023-01-08T22:21:42.577Z,70.69
2023-01-08T22:24:09.208Z,71.17
2023-01-08T22:26:35.989Z,71.24
2023-01-08T22:29:05.789Z,71.47
2023-01-08T22:31:33.764Z,71.90
2023-01-08T22:34:00.694Z,71.95
2023-01-08T22:36:27.305Z,72.11
2023-01-08T22:38:53.779Z,72.09
2023-01-08T22:41:24.210Z,71.80
2023-01-08T22:43:56.623Z,72.07
2023-01-08T22:46:24.386Z,72.39
2023-01-08T22:48:51.265Z,72.58
2023-01-08T22:51:19.435Z,72.46
2023-01-08T22:53:45.922Z,72.41
2023-01-08T22:56:12.967Z,72.47
2023-01-08T22:58:41.782Z,72.61
2023-01-08T23:01:12.383Z,72.01
2023-01-08T23:03:44.135Z,72.31
2023-01-08T23:06:16.617Z,72.66
2023-01-08T23:08:44.676Z,72.82
2023-01-08T23:11:14.993Z,73.03
2023-01-08T23:13:42.176Z,73.18
2023-01-08T23:16:12.680Z,73.50
2023-01-08T23:18:40.149Z,73.96
2023-01-08T23:21:17.043Z,73.18
2023-01-08T23:23:44.596Z,73.20
2023-01-08T23:26:24.725Z,73.01
2023-01-08T23:28:53.065Z,73.17
2023-01-08T23:31:25.205Z,72.95
2023-01-08T23:33:52.588Z,72.89
2023-01-08T23:36:21.017Z,72.95
2023-01-08T23:38:54.649Z,72.89
2023-01-08T23:41:30.737Z,73.13
2023-01-08T23:44:04.021Z,73.18
2023-01-08T23:46:30.514Z,72.79
2023-01-08T23:48:57.161Z,73.15
2023-01-08T23:51:24.327Z,73.71
2023-01-08T23:53:53.568Z,73.27
2023-01-08T23:56:21.103Z,73.24
2023-01-08T23:58:49.259Z,73.38
